KDMN/DMN METAR and TAF weather

Enter ICAO airport designator
Station Type Date Time Source
KDMN METAR 2019/02/23 22:53 UTC NOAA

KDMN 232253Z AUTO 27016G22KT 10SM CLR 09/M06 A3017 RMK AO2 SLP204 T00941056


Station Type Date Time Source
KDMN Decoded METAR 2019/02/23 22:53 UTC NOAA

DEMING MUNICIPAL AIRPORT, NM, United States (KDMN) 32-16N 107-43W 1311M
Feb 23, 2019 - 05:53 PM EST / 2019.02.23 2253 UTC
Wind: from the W (270 degrees) at 18 MPH (16 KT) gusting to 25 MPH (22 KT):0
Visibility: 10 mile(s):0
Sky conditions: clear
Temperature: 48.9 F (9.4 C)
Dew Point: 21.9 F (-5.6 C)
Relative Humidity: 34%
Pressure (altimeter): 30.17 in. Hg (1021 hPa)
ob: KDMN 232253Z AUTO 27016G22KT 10SM CLR 09/M06 A3017 RMK AO2 SLP204 T00941056
cycle: 23

Station Type Date Time Source
KDMN TAF 2019/02/23 18:22 UTC NOAA

TAF KDMN 231720Z 2318/2418 28019G29KT P6SM FEW040
FM240100 31005KT P6SM SKC
FM241000 06005KT P6SM SCT250


Example: see airport list